sensor_id;sensor_type;location;lat;lon;timestamp;P1;durP1;ratioP1;P2;durP2;ratioP2
22737;SDS011;11536;50.860;4.286;2022-07-24T00:01:46;26.30;;;17.98;;
22737;SDS011;11536;50.860;4.286;2022-07-24T00:04:12;33.45;;;19.98;;
22737;SDS011;11536;50.860;4.286;2022-07-24T00:06:37;32.85;;;22.13;;
22737;SDS011;11536;50.860;4.286;2022-07-24T00:09:03;30.58;;;22.00;;
22737;SDS011;11536;50.860;4.286;2022-07-24T00:11:29;33.38;;;21.38;;
22737;SDS011;11536;50.860;4.286;2022-07-24T00:13:55;30.15;;;21.95;;
22737;SDS011;11536;50.860;4.286;2022-07-24T00:16:21;33.40;;;22.20;;
22737;SDS011;11536;50.860;4.286;2022-07-24T00:18:46;30.75;;;21.10;;
22737;SDS011;11536;50.860;4.286;2022-07-24T00:21:12;30.77;;;20.92;;
22737;SDS011;11536;50.860;4.286;2022-07-24T00:23:37;33.38;;;22.63;;
22737;SDS011;11536;50.860;4.286;2022-07-24T00:26:03;32.95;;;23.08;;
22737;SDS011;11536;50.860;4.286;2022-07-24T00:28:29;32.85;;;22.88;;
22737;SDS011;11536;50.860;4.286;2022-07-24T00:30:55;32.92;;;21.55;;
22737;SDS011;11536;50.860;4.286;2022-07-24T00:33:21;35.00;;;22.95;;
22737;SDS011;11536;50.860;4.286;2022-07-24T00:35:47;35.03;;;24.00;;
22737;SDS011;11536;50.860;4.286;2022-07-24T00:38:12;32.40;;;21.73;;
22737;SDS011;11536;50.860;4.286;2022-07-24T00:40:38;32.38;;;22.08;;
22737;SDS011;11536;50.860;4.286;2022-07-24T00:43:04;32.78;;;21.52;;
22737;SDS011;11536;50.860;4.286;2022-07-24T00:45:30;34.20;;;22.35;;
22737;SDS011;11536;50.860;4.286;2022-07-24T00:47:56;32.00;;;22.42;;
22737;SDS011;11536;50.860;4.286;2022-07-24T00:50:22;34.28;;;23.08;;
22737;SDS011;11536;50.860;4.286;2022-07-24T00:52:48;32.03;;;22.80;;
22737;SDS011;11536;50.860;4.286;2022-07-24T00:55:14;34.42;;;22.30;;
22737;SDS011;11536;50.860;4.286;2022-07-24T00:57:40;34.65;;;23.38;;
22737;SDS011;11536;50.860;4.286;2022-07-24T01:00:09;30.40;;;22.05;;
22737;SDS011;11536;50.860;4.286;2022-07-24T01:02:38;30.20;;;21.80;;
22737;SDS011;11536;50.860;4.286;2022-07-24T01:05:10;32.58;;;21.65;;
22737;SDS011;11536;50.860;4.286;2022-07-24T01:07:37;30.55;;;20.75;;
22737;SDS011;11536;50.860;4.286;2022-07-24T01:10:04;34.33;;;21.90;;
22737;SDS011;11536;50.860;4.286;2022-07-24T01:12:31;33.97;;;21.05;;
22737;SDS011;11536;50.860;4.286;2022-07-24T01:14:58;31.02;;;20.42;;
22737;SDS011;11536;50.860;4.286;2022-07-24T01:17:23;31.50;;;22.20;;
22737;SDS011;11536;50.860;4.286;2022-07-24T01:19:53;34.70;;;22.30;;
22737;SDS011;11536;50.860;4.286;2022-07-24T01:22:19;30.98;;;20.30;;
22737;SDS011;11536;50.860;4.286;2022-07-24T01:24:45;31.67;;;20.67;;
22737;SDS011;11536;50.860;4.286;2022-07-24T01:27:10;28.35;;;19.80;;
22737;SDS011;11536;50.860;4.286;2022-07-24T01:29:36;25.45;;;18.67;;
22737;SDS011;11536;50.860;4.286;2022-07-24T01:32:02;27.67;;;18.83;;
22737;SDS011;11536;50.860;4.286;2022-07-24T01:34:28;29.92;;;17.95;;
22737;SDS011;11536;50.860;4.286;2022-07-24T01:36:53;23.02;;;15.45;;
22737;SDS011;11536;50.860;4.286;2022-07-24T01:39:19;25.13;;;15.88;;
22737;SDS011;11536;50.860;4.286;2022-07-24T01:41:45;23.45;;;16.20;;
22737;SDS011;11536;50.860;4.286;2022-07-24T01:44:10;23.45;;;14.38;;
22737;SDS011;11536;50.860;4.286;2022-07-24T01:46:36;23.67;;;14.27;;
22737;SDS011;11536;50.860;4.286;2022-07-24T01:49:02;18.15;;;12.30;;
22737;SDS011;11536;50.860;4.286;2022-07-24T01:51:28;19.77;;;12.10;;
22737;SDS011;11536;50.860;4.286;2022-07-24T01:53:54;20.15;;;12.70;;
22737;SDS011;11536;50.860;4.286;2022-07-24T01:56:19;16.58;;;11.23;;
22737;SDS011;11536;50.860;4.286;2022-07-24T01:58:45;19.08;;;11.90;;
22737;SDS011;11536;50.860;4.286;2022-07-24T02:01:10;17.75;;;11.75;;
22737;SDS011;11536;50.860;4.286;2022-07-24T02:03:36;18.35;;;11.32;;
22737;SDS011;11536;50.860;4.286;2022-07-24T02:06:02;18.80;;;11.65;;
22737;SDS011;11536;50.860;4.286;2022-07-24T02:08:28;17.90;;;11.95;;
22737;SDS011;11536;50.860;4.286;2022-07-24T02:10:53;18.27;;;12.07;;
22737;SDS011;11536;50.860;4.286;2022-07-24T02:13:19;19.50;;;11.82;;
22737;SDS011;11536;50.860;4.286;2022-07-24T02:15:44;18.52;;;11.57;;
22737;SDS011;11536;50.860;4.286;2022-07-24T02:18:10;21.10;;;13.15;;
22737;SDS011;11536;50.860;4.286;2022-07-24T02:20:36;17.42;;;12.18;;
22737;SDS011;11536;50.860;4.286;2022-07-24T02:23:01;22.40;;;12.73;;
22737;SDS011;11536;50.860;4.286;2022-07-24T02:25:27;20.73;;;12.90;;
22737;SDS011;11536;50.860;4.286;2022-07-24T02:27:52;22.98;;;14.05;;
22737;SDS011;11536;50.860;4.286;2022-07-24T02:30:19;21.27;;;15.02;;
22737;SDS011;11536;50.860;4.286;2022-07-24T02:32:46;26.65;;;17.80;;
22737;SDS011;11536;50.860;4.286;2022-07-24T02:35:12;29.27;;;20.05;;
22737;SDS011;11536;50.860;4.286;2022-07-24T02:37:38;31.63;;;21.25;;
22737;SDS011;11536;50.860;4.286;2022-07-24T02:40:05;30.67;;;19.45;;
22737;SDS011;11536;50.860;4.286;2022-07-24T02:42:32;31.50;;;21.65;;
22737;SDS011;11536;50.860;4.286;2022-07-24T02:44:58;30.95;;;22.83;;
22737;SDS011;11536;50.860;4.286;2022-07-24T02:47:23;32.22;;;22.80;;
22737;SDS011;11536;50.860;4.286;2022-07-24T02:49:49;30.60;;;20.75;;
22737;SDS011;11536;50.860;4.286;2022-07-24T02:52:15;27.58;;;19.52;;
22737;SDS011;11536;50.860;4.286;2022-07-24T02:54:40;31.38;;;23.23;;
22737;SDS011;11536;50.860;4.286;2022-07-24T02:57:06;30.80;;;21.05;;
22737;SDS011;11536;50.860;4.286;2022-07-24T02:59:31;34.03;;;21.15;;
22737;SDS011;11536;50.860;4.286;2022-07-24T03:01:57;27.65;;;20.08;;
22737;SDS011;11536;50.860;4.286;2022-07-24T03:04:23;30.38;;;21.00;;
22737;SDS011;11536;50.860;4.286;2022-07-24T03:06:48;27.88;;;20.02;;
22737;SDS011;11536;50.860;4.286;2022-07-24T03:09:14;29.95;;;20.17;;
22737;SDS011;11536;50.860;4.286;2022-07-24T03:11:40;29.33;;;19.50;;
22737;SDS011;11536;50.860;4.286;2022-07-24T03:14:05;30.00;;;20.75;;
22737;SDS011;11536;50.860;4.286;2022-07-24T03:16:31;31.38;;;20.80;;
22737;SDS011;11536;50.860;4.286;2022-07-24T03:18:56;32.92;;;20.40;;
22737;SDS011;11536;50.860;4.286;2022-07-24T03:21:23;36.10;;;21.20;;
22737;SDS011;11536;50.860;4.286;2022-07-24T03:23:48;30.77;;;19.27;;
22737;SDS011;11536;50.860;4.286;2022-07-24T03:26:14;27.48;;;17.83;;
22737;SDS011;11536;50.860;4.286;2022-07-24T03:28:40;34.30;;;20.85;;
22737;SDS011;11536;50.860;4.286;2022-07-24T03:31:05;32.83;;;20.00;;
22737;SDS011;11536;50.860;4.286;2022-07-24T03:33:31;28.23;;;19.60;;
22737;SDS011;11536;50.860;4.286;2022-07-24T03:35:56;26.63;;;18.45;;
22737;SDS011;11536;50.860;4.286;2022-07-24T03:38:22;32.40;;;20.70;;
22737;SDS011;11536;50.860;4.286;2022-07-24T03:40:48;32.15;;;19.88;;
22737;SDS011;11536;50.860;4.286;2022-07-24T03:43:13;31.45;;;19.48;;
22737;SDS011;11536;50.860;4.286;2022-07-24T03:45:39;28.95;;;20.25;;
22737;SDS011;11536;50.860;4.286;2022-07-24T03:48:05;29.17;;;19.13;;
22737;SDS011;11536;50.860;4.286;2022-07-24T03:50:30;29.38;;;19.40;;
22737;SDS011;11536;50.860;4.286;2022-07-24T03:52:56;28.77;;;20.30;;
22737;SDS011;11536;50.860;4.286;2022-07-24T03:55:22;27.40;;;19.45;;
22737;SDS011;11536;50.860;4.286;2022-07-24T03:57:48;28.70;;;18.65;;
22737;SDS011;11536;50.860;4.286;2022-07-24T04:00:14;26.58;;;17.02;;
22737;SDS011;11536;50.860;4.286;2022-07-24T04:02:40;30.30;;;18.85;;
22737;SDS011;11536;50.860;4.286;2022-07-24T04:05:06;27.80;;;18.25;;
22737;SDS011;11536;50.860;4.286;2022-07-24T04:07:36;25.80;;;17.83;;
22737;SDS011;11536;50.860;4.286;2022-07-24T04:10:02;26.95;;;18.23;;
22737;SDS011;11536;50.860;4.286;2022-07-24T04:12:29;28.83;;;18.30;;
22737;SDS011;11536;50.860;4.286;2022-07-24T04:14:55;29.60;;;18.35;;
22737;SDS011;11536;50.860;4.286;2022-07-24T04:17:21;28.95;;;17.23;;
22737;SDS011;11536;50.860;4.286;2022-07-24T04:19:46;27.45;;;18.02;;
22737;SDS011;11536;50.860;4.286;2022-07-24T04:22:12;26.80;;;17.00;;
22737;SDS011;11536;50.860;4.286;2022-07-24T04:24:37;26.08;;;16.40;;
22737;SDS011;11536;50.860;4.286;2022-07-24T04:27:03;28.70;;;18.38;;
22737;SDS011;11536;50.860;4.286;2022-07-24T04:29:29;28.30;;;17.52;;
22737;SDS011;11536;50.860;4.286;2022-07-24T04:31:54;25.08;;;15.85;;
22737;SDS011;11536;50.860;4.286;2022-07-24T04:34:20;28.25;;;17.17;;
22737;SDS011;11536;50.860;4.286;2022-07-24T04:36:46;25.08;;;15.27;;
22737;SDS011;11536;50.860;4.286;2022-07-24T04:39:11;25.27;;;15.23;;
22737;SDS011;11536;50.860;4.286;2022-07-24T04:41:37;23.45;;;16.13;;
22737;SDS011;11536;50.860;4.286;2022-07-24T04:44:03;24.70;;;16.17;;
22737;SDS011;11536;50.860;4.286;2022-07-24T04:46:28;26.13;;;16.08;;
22737;SDS011;11536;50.860;4.286;2022-07-24T04:48:54;22.80;;;14.15;;
22737;SDS011;11536;50.860;4.286;2022-07-24T04:51:20;24.80;;;15.13;;
22737;SDS011;11536;50.860;4.286;2022-07-24T04:53:45;24.20;;;14.30;;
22737;SDS011;11536;50.860;4.286;2022-07-24T04:56:11;23.58;;;13.15;;
22737;SDS011;11536;50.860;4.286;2022-07-24T04:58:37;22.38;;;13.15;;
22737;SDS011;11536;50.860;4.286;2022-07-24T05:01:02;17.92;;;12.50;;
22737;SDS011;11536;50.860;4.286;2022-07-24T05:03:28;20.80;;;12.50;;
22737;SDS011;11536;50.860;4.286;2022-07-24T05:05:54;21.58;;;12.57;;
22737;SDS011;11536;50.860;4.286;2022-07-24T05:08:19;22.48;;;13.45;;
22737;SDS011;11536;50.860;4.286;2022-07-24T05:10:45;23.00;;;14.20;;
22737;SDS011;11536;50.860;4.286;2022-07-24T05:13:10;22.17;;;13.63;;
22737;SDS011;11536;50.860;4.286;2022-07-24T05:15:36;20.10;;;13.18;;
22737;SDS011;11536;50.860;4.286;2022-07-24T05:18:02;23.02;;;14.07;;
22737;SDS011;11536;50.860;4.286;2022-07-24T05:20:28;22.83;;;14.40;;
22737;SDS011;11536;50.860;4.286;2022-07-24T05:22:53;22.48;;;13.73;;
22737;SDS011;11536;50.860;4.286;2022-07-24T05:25:19;20.73;;;13.15;;
22737;SDS011;11536;50.860;4.286;2022-07-24T05:27:45;20.42;;;13.23;;
22737;SDS011;11536;50.860;4.286;2022-07-24T05:30:11;24.15;;;14.52;;
22737;SDS011;11536;50.860;4.286;2022-07-24T05:32:36;24.35;;;14.18;;
22737;SDS011;11536;50.860;4.286;2022-07-24T05:35:02;22.55;;;13.88;;
22737;SDS011;11536;50.860;4.286;2022-07-24T05:37:28;18.70;;;11.93;;
22737;SDS011;11536;50.860;4.286;2022-07-24T05:39:54;18.35;;;11.65;;
22737;SDS011;11536;50.860;4.286;2022-07-24T05:42:20;19.80;;;12.55;;
22737;SDS011;11536;50.860;4.286;2022-07-24T05:44:45;17.65;;;11.75;;
22737;SDS011;11536;50.860;4.286;2022-07-24T05:47:11;20.40;;;11.90;;
22737;SDS011;11536;50.860;4.286;2022-07-24T05:49:36;18.13;;;11.45;;
22737;SDS011;11536;50.860;4.286;2022-07-24T05:52:02;16.88;;;11.60;;
22737;SDS011;11536;50.860;4.286;2022-07-24T05:54:28;19.77;;;11.52;;
22737;SDS011;11536;50.860;4.286;2022-07-24T05:56:53;18.50;;;11.05;;
22737;SDS011;11536;50.860;4.286;2022-07-24T05:59:19;19.88;;;12.65;;
22737;SDS011;11536;50.860;4.286;2022-07-24T06:01:45;18.60;;;11.07;;
22737;SDS011;11536;50.860;4.286;2022-07-24T06:04:10;19.48;;;12.18;;
22737;SDS011;11536;50.860;4.286;2022-07-24T06:06:36;19.17;;;11.10;;
22737;SDS011;11536;50.860;4.286;2022-07-24T06:09:02;20.33;;;11.55;;
22737;SDS011;11536;50.860;4.286;2022-07-24T06:11:28;18.20;;;11.77;;
22737;SDS011;11536;50.860;4.286;2022-07-24T06:13:55;21.00;;;12.23;;
22737;SDS011;11536;50.860;4.286;2022-07-24T06:16:20;15.95;;;10.30;;
22737;SDS011;11536;50.860;4.286;2022-07-24T06:18:46;20.27;;;11.20;;
22737;SDS011;11536;50.860;4.286;2022-07-24T06:21:11;18.70;;;11.23;;
22737;SDS011;11536;50.860;4.286;2022-07-24T06:23:37;18.77;;;11.50;;
22737;SDS011;11536;50.860;4.286;2022-07-24T06:26:03;14.70;;;8.88;;
22737;SDS011;11536;50.860;4.286;2022-07-24T06:28:28;17.67;;;10.15;;
22737;SDS011;11536;50.860;4.286;2022-07-24T06:30:54;14.90;;;9.05;;
22737;SDS011;11536;50.860;4.286;2022-07-24T06:33:20;17.25;;;9.98;;
22737;SDS011;11536;50.860;4.286;2022-07-24T06:35:45;15.10;;;8.80;;
22737;SDS011;11536;50.860;4.286;2022-07-24T06:38:11;16.02;;;9.05;;
22737;SDS011;11536;50.860;4.286;2022-07-24T06:40:37;17.83;;;9.27;;
22737;SDS011;11536;50.860;4.286;2022-07-24T06:43:03;16.90;;;9.60;;
22737;SDS011;11536;50.860;4.286;2022-07-24T06:45:29;12.68;;;7.63;;
22737;SDS011;11536;50.860;4.286;2022-07-24T06:47:57;16.60;;;8.68;;
22737;SDS011;11536;50.860;4.286;2022-07-24T06:50:26;15.23;;;9.05;;
22737;SDS011;11536;50.860;4.286;2022-07-24T06:52:52;12.73;;;7.07;;
22737;SDS011;11536;50.860;4.286;2022-07-24T06:55:17;12.63;;;7.53;;
22737;SDS011;11536;50.860;4.286;2022-07-24T06:57:43;13.30;;;7.40;;
22737;SDS011;11536;50.860;4.286;2022-07-24T07:00:09;12.77;;;7.13;;
22737;SDS011;11536;50.860;4.286;2022-07-24T07:02:35;11.13;;;5.85;;
22737;SDS011;11536;50.860;4.286;2022-07-24T07:05:01;10.57;;;5.95;;
22737;SDS011;11536;50.860;4.286;2022-07-24T07:07:36;12.27;;;6.03;;
22737;SDS011;11536;50.860;4.286;2022-07-24T07:10:08;12.80;;;6.03;;
22737;SDS011;11536;50.860;4.286;2022-07-24T07:12:34;10.80;;;5.47;;
22737;SDS011;11536;50.860;4.286;2022-07-24T07:15:03;10.70;;;5.43;;
22737;SDS011;11536;50.860;4.286;2022-07-24T07:17:30;8.52;;;4.63;;
22737;SDS011;11536;50.860;4.286;2022-07-24T07:19:55;10.32;;;5.47;;
22737;SDS011;11536;50.860;4.286;2022-07-24T07:22:21;11.07;;;4.75;;
22737;SDS011;11536;50.860;4.286;2022-07-24T07:24:46;12.55;;;4.70;;
22737;SDS011;11536;50.860;4.286;2022-07-24T07:27:12;9.90;;;5.40;;
22737;SDS011;11536;50.860;4.286;2022-07-24T07:29:38;9.88;;;4.80;;
22737;SDS011;11536;50.860;4.286;2022-07-24T07:32:04;8.27;;;4.20;;
22737;SDS011;11536;50.860;4.286;2022-07-24T07:34:30;7.13;;;3.67;;
22737;SDS011;11536;50.860;4.286;2022-07-24T07:36:56;9.93;;;3.95;;
22737;SDS011;11536;50.860;4.286;2022-07-24T07:39:25;8.90;;;3.40;;
22737;SDS011;11536;50.860;4.286;2022-07-24T07:41:50;7.82;;;3.67;;
22737;SDS011;11536;50.860;4.286;2022-07-24T07:44:16;6.90;;;2.58;;
22737;SDS011;11536;50.860;4.286;2022-07-24T07:46:41;7.65;;;3.35;;
22737;SDS011;11536;50.860;4.286;2022-07-24T07:49:08;7.07;;;3.13;;
22737;SDS011;11536;50.860;4.286;2022-07-24T07:51:34;7.85;;;3.58;;
22737;SDS011;11536;50.860;4.286;2022-07-24T07:53:59;7.68;;;2.78;;
22737;SDS011;11536;50.860;4.286;2022-07-24T07:56:26;6.05;;;2.60;;
22737;SDS011;11536;50.860;4.286;2022-07-24T07:58:53;6.38;;;2.67;;
22737;SDS011;11536;50.860;4.286;2022-07-24T08:01:18;7.40;;;2.95;;
22737;SDS011;11536;50.860;4.286;2022-07-24T08:03:44;5.32;;;2.60;;
22737;SDS011;11536;50.860;4.286;2022-07-24T08:06:10;7.72;;;3.10;;
22737;SDS011;11536;50.860;4.286;2022-07-24T08:08:35;6.75;;;2.80;;
22737;SDS011;11536;50.860;4.286;2022-07-24T08:11:01;5.75;;;2.70;;
22737;SDS011;11536;50.860;4.286;2022-07-24T08:13:26;5.45;;;2.45;;
22737;SDS011;11536;50.860;4.286;2022-07-24T08:15:52;7.72;;;2.30;;
22737;SDS011;11536;50.860;4.286;2022-07-24T08:18:18;5.10;;;1.90;;
22737;SDS011;11536;50.860;4.286;2022-07-24T08:20:43;7.53;;;2.45;;
22737;SDS011;11536;50.860;4.286;2022-07-24T08:23:09;4.70;;;1.92;;
22737;SDS011;11536;50.860;4.286;2022-07-24T08:25:34;6.22;;;2.20;;
22737;SDS011;11536;50.860;4.286;2022-07-24T08:28:00;6.40;;;2.20;;
22737;SDS011;11536;50.860;4.286;2022-07-24T08:30:26;6.18;;;2.25;;
22737;SDS011;11536;50.860;4.286;2022-07-24T08:32:54;5.65;;;2.22;;
22737;SDS011;11536;50.860;4.286;2022-07-24T08:35:20;4.90;;;1.80;;
22737;SDS011;11536;50.860;4.286;2022-07-24T08:37:46;4.60;;;2.17;;
22737;SDS011;11536;50.860;4.286;2022-07-24T08:40:12;4.15;;;1.90;;
22737;SDS011;11536;50.860;4.286;2022-07-24T08:42:38;5.47;;;2.22;;
22737;SDS011;11536;50.860;4.286;2022-07-24T08:45:04;5.72;;;2.00;;
22737;SDS011;11536;50.860;4.286;2022-07-24T08:47:31;4.30;;;1.90;;
22737;SDS011;11536;50.860;4.286;2022-07-24T08:49:58;3.55;;;1.65;;
22737;SDS011;11536;50.860;4.286;2022-07-24T08:52:25;6.13;;;2.17;;
22737;SDS011;11536;50.860;4.286;2022-07-24T08:54:51;4.32;;;1.77;;
22737;SDS011;11536;50.860;4.286;2022-07-24T08:57:18;5.78;;;1.55;;
22737;SDS011;11536;50.860;4.286;2022-07-24T08:59:43;4.63;;;1.77;;
22737;SDS011;11536;50.860;4.286;2022-07-24T09:02:09;3.03;;;1.60;;
22737;SDS011;11536;50.860;4.286;2022-07-24T09:04:42;4.40;;;1.80;;
22737;SDS011;11536;50.860;4.286;2022-07-24T09:07:10;3.50;;;1.80;;
22737;SDS011;11536;50.860;4.286;2022-07-24T09:09:38;4.15;;;1.60;;
22737;SDS011;11536;50.860;4.286;2022-07-24T09:12:09;4.75;;;1.90;;
22737;SDS011;11536;50.860;4.286;2022-07-24T09:14:37;4.65;;;1.63;;
22737;SDS011;11536;50.860;4.286;2022-07-24T09:17:05;4.22;;;1.88;;
22737;SDS011;11536;50.860;4.286;2022-07-24T09:19:31;6.90;;;1.90;;
22737;SDS011;11536;50.860;4.286;2022-07-24T09:22:10;4.25;;;1.83;;
22737;SDS011;11536;50.860;4.286;2022-07-24T09:24:42;5.38;;;1.90;;
22737;SDS011;11536;50.860;4.286;2022-07-24T09:27:07;3.72;;;1.75;;
22737;SDS011;11536;50.860;4.286;2022-07-24T09:29:39;6.20;;;1.60;;
22737;SDS011;11536;50.860;4.286;2022-07-24T09:32:04;3.53;;;1.70;;
22737;SDS011;11536;50.860;4.286;2022-07-24T09:34:39;5.15;;;1.70;;
22737;SDS011;11536;50.860;4.286;2022-07-24T09:37:06;4.47;;;1.60;;
22737;SDS011;11536;50.860;4.286;2022-07-24T09:39:33;5.72;;;1.60;;
22737;SDS011;11536;50.860;4.286;2022-07-24T09:42:02;2.95;;;1.58;;
22737;SDS011;11536;50.860;4.286;2022-07-24T09:44:29;5.75;;;1.50;;
22737;SDS011;11536;50.860;4.286;2022-07-24T09:46:56;5.20;;;1.40;;
22737;SDS011;11536;50.860;4.286;2022-07-24T09:49:27;3.72;;;1.60;;
22737;SDS011;11536;50.860;4.286;2022-07-24T09:54:57;4.03;;;1.60;;
22737;SDS011;11536;50.860;4.286;2022-07-24T09:57:24;6.68;;;1.80;;
22737;SDS011;11536;50.860;4.286;2022-07-24T10:02:22;4.38;;;1.63;;
22737;SDS011;11536;50.860;4.286;2022-07-24T10:04:53;4.63;;;1.75;;
22737;SDS011;11536;50.860;4.286;2022-07-24T10:07:20;3.78;;;1.63;;
22737;SDS011;11536;50.860;4.286;2022-07-24T10:09:47;3.28;;;1.30;;
22737;SDS011;11536;50.860;4.286;2022-07-24T10:12:21;4.43;;;1.58;;
22737;SDS011;11536;50.860;4.286;2022-07-24T10:14:54;2.75;;;1.40;;
22737;SDS011;11536;50.860;4.286;2022-07-24T10:17:21;4.18;;;1.40;;
22737;SDS011;11536;50.860;4.286;2022-07-24T10:19:59;4.30;;;1.45;;
22737;SDS011;11536;50.860;4.286;2022-07-24T10:22:29;2.80;;;1.35;;
22737;SDS011;11536;50.860;4.286;2022-07-24T10:25:23;3.67;;;1.50;;
22737;SDS011;11536;50.860;4.286;2022-07-24T10:27:51;4.03;;;1.50;;
22737;SDS011;11536;50.860;4.286;2022-07-24T10:30:22;3.22;;;1.70;;
22737;SDS011;11536;50.860;4.286;2022-07-24T10:32:52;5.82;;;1.77;;
22737;SDS011;11536;50.860;4.286;2022-07-24T10:35:22;4.43;;;1.50;;
22737;SDS011;11536;50.860;4.286;2022-07-24T10:45:31;2.92;;;1.50;;
22737;SDS011;11536;50.860;4.286;2022-07-24T10:47:57;3.63;;;1.60;;
22737;SDS011;11536;50.860;4.286;2022-07-24T10:50:23;3.30;;;1.25;;
22737;SDS011;11536;50.860;4.286;2022-07-24T10:58:55;3.55;;;1.40;;
22737;SDS011;11536;50.860;4.286;2022-07-24T11:03:57;4.00;;;1.55;;
22737;SDS011;11536;50.860;4.286;2022-07-24T11:09:10;4.07;;;1.80;;
22737;SDS011;11536;50.860;4.286;2022-07-24T11:11:45;4.60;;;1.83;;
22737;SDS011;11536;50.860;4.286;2022-07-24T11:14:46;4.80;;;1.73;;
22737;SDS011;11536;50.860;4.286;2022-07-24T11:20:08;3.13;;;1.60;;
22737;SDS011;11536;50.860;4.286;2022-07-24T11:22:43;5.60;;;1.95;;
22737;SDS011;11536;50.860;4.286;2022-07-24T11:25:24;4.50;;;1.83;;
22737;SDS011;11536;50.860;4.286;2022-07-24T11:27:56;9.52;;;2.15;;
22737;SDS011;11536;50.860;4.286;2022-07-24T11:30:31;6.47;;;2.20;;
22737;SDS011;11536;50.860;4.286;2022-07-24T11:33:05;4.75;;;2.08;;
22737;SDS011;11536;50.860;4.286;2022-07-24T11:35:32;4.63;;;2.10;;
22737;SDS011;11536;50.860;4.286;2022-07-24T11:38:01;3.58;;;2.00;;
22737;SDS011;11536;50.860;4.286;2022-07-24T11:40:35;4.82;;;2.10;;
22737;SDS011;11536;50.860;4.286;2022-07-24T11:43:05;4.28;;;2.10;;
22737;SDS011;11536;50.860;4.286;2022-07-24T11:45:34;4.25;;;2.17;;
22737;SDS011;11536;50.860;4.286;2022-07-24T11:48:00;5.35;;;2.45;;
22737;SDS011;11536;50.860;4.286;2022-07-24T11:50:26;5.22;;;2.10;;
22737;SDS011;11536;50.860;4.286;2022-07-24T11:52:53;6.43;;;2.05;;
22737;SDS011;11536;50.860;4.286;2022-07-24T11:55:20;4.65;;;2.10;;
22737;SDS011;11536;50.860;4.286;2022-07-24T11:57:48;6.22;;;2.30;;
22737;SDS011;11536;50.860;4.286;2022-07-24T12:00:23;5.85;;;2.50;;
22737;SDS011;11536;50.860;4.286;2022-07-24T12:02:52;4.22;;;2.05;;
22737;SDS011;11536;50.860;4.286;2022-07-24T12:05:23;4.85;;;2.03;;
22737;SDS011;11536;50.860;4.286;2022-07-24T12:07:56;5.57;;;2.13;;
22737;SDS011;11536;50.860;4.286;2022-07-24T12:10:25;5.32;;;2.22;;
22737;SDS011;11536;50.860;4.286;2022-07-24T12:12:52;3.38;;;2.00;;
22737;SDS011;11536;50.860;4.286;2022-07-24T12:15:19;4.40;;;2.10;;
22737;SDS011;11536;50.860;4.286;2022-07-24T12:17:56;5.07;;;2.30;;
22737;SDS011;11536;50.860;4.286;2022-07-24T12:20:36;3.70;;;1.75;;
22737;SDS011;11536;50.860;4.286;2022-07-24T12:23:14;4.50;;;2.28;;
22737;SDS011;11536;50.860;4.286;2022-07-24T12:25:41;5.05;;;2.33;;
22737;SDS011;11536;50.860;4.286;2022-07-24T12:28:09;5.22;;;1.90;;
22737;SDS011;11536;50.860;4.286;2022-07-24T12:33:54;3.88;;;1.88;;
22737;SDS011;11536;50.860;4.286;2022-07-24T12:36:22;4.93;;;2.17;;
22737;SDS011;11536;50.860;4.286;2022-07-24T12:38:53;3.35;;;1.80;;
22737;SDS011;11536;50.860;4.286;2022-07-24T12:41:21;4.40;;;1.88;;
22737;SDS011;11536;50.860;4.286;2022-07-24T12:46:41;3.88;;;2.05;;
22737;SDS011;11536;50.860;4.286;2022-07-24T12:57:00;7.18;;;2.25;;
22737;SDS011;11536;50.860;4.286;2022-07-24T12:59:38;4.13;;;2.20;;
22737;SDS011;11536;50.860;4.286;2022-07-24T13:02:21;4.13;;;2.00;;
22737;SDS011;11536;50.860;4.286;2022-07-24T13:04:50;5.20;;;2.17;;
22737;SDS011;11536;50.860;4.286;2022-07-24T13:07:18;4.75;;;2.45;;
22737;SDS011;11536;50.860;4.286;2022-07-24T13:09:46;3.90;;;2.30;;
22737;SDS011;11536;50.860;4.286;2022-07-24T13:12:12;4.38;;;2.00;;
22737;SDS011;11536;50.860;4.286;2022-07-24T13:14:38;4.03;;;2.00;;
22737;SDS011;11536;50.860;4.286;2022-07-24T13:17:17;4.82;;;2.10;;
22737;SDS011;11536;50.860;4.286;2022-07-24T13:19:49;4.50;;;2.30;;
22737;SDS011;11536;50.860;4.286;2022-07-24T13:22:16;4.25;;;2.15;;
22737;SDS011;11536;50.860;4.286;2022-07-24T13:24:43;3.72;;;2.33;;
22737;SDS011;11536;50.860;4.286;2022-07-24T13:27:13;3.88;;;2.05;;
22737;SDS011;11536;50.860;4.286;2022-07-24T13:29:39;7.40;;;2.40;;
22737;SDS011;11536;50.860;4.286;2022-07-24T13:32:05;4.85;;;2.10;;
22737;SDS011;11536;50.860;4.286;2022-07-24T13:34:32;3.97;;;2.13;;
22737;SDS011;11536;50.860;4.286;2022-07-24T13:36:58;4.22;;;2.00;;
22737;SDS011;11536;50.860;4.286;2022-07-24T13:39:24;5.57;;;2.22;;
22737;SDS011;11536;50.860;4.286;2022-07-24T13:41:53;5.32;;;2.20;;
22737;SDS011;11536;50.860;4.286;2022-07-24T13:44:18;5.03;;;2.13;;
22737;SDS011;11536;50.860;4.286;2022-07-24T13:46:44;4.15;;;2.00;;
22737;SDS011;11536;50.860;4.286;2022-07-24T13:49:10;6.00;;;2.28;;
22737;SDS011;11536;50.860;4.286;2022-07-24T13:51:36;4.30;;;2.40;;
22737;SDS011;11536;50.860;4.286;2022-07-24T13:54:02;3.78;;;2.08;;
22737;SDS011;11536;50.860;4.286;2022-07-24T13:56:28;4.47;;;2.40;;
22737;SDS011;11536;50.860;4.286;2022-07-24T13:58:54;5.20;;;2.88;;
22737;SDS011;11536;50.860;4.286;2022-07-24T14:01:21;4.28;;;1.98;;
22737;SDS011;11536;50.860;4.286;2022-07-24T14:03:47;5.35;;;2.50;;
22737;SDS011;11536;50.860;4.286;2022-07-24T14:06:12;4.88;;;2.20;;
22737;SDS011;11536;50.860;4.286;2022-07-24T14:08:38;5.22;;;2.08;;
22737;SDS011;11536;50.860;4.286;2022-07-24T14:11:06;6.28;;;2.00;;
22737;SDS011;11536;50.860;4.286;2022-07-24T14:13:32;4.97;;;1.92;;
22737;SDS011;11536;50.860;4.286;2022-07-24T14:15:57;4.60;;;2.03;;
22737;SDS011;11536;50.860;4.286;2022-07-24T14:18:23;5.35;;;2.20;;
22737;SDS011;11536;50.860;4.286;2022-07-24T14:20:49;5.97;;;2.47;;
22737;SDS011;11536;50.860;4.286;2022-07-24T14:23:15;3.70;;;2.08;;
22737;SDS011;11536;50.860;4.286;2022-07-24T14:25:40;7.07;;;2.22;;
22737;SDS011;11536;50.860;4.286;2022-07-24T14:28:07;4.68;;;2.40;;
22737;SDS011;11536;50.860;4.286;2022-07-24T14:30:33;3.85;;;2.20;;
22737;SDS011;11536;50.860;4.286;2022-07-24T14:32:58;4.30;;;2.22;;
22737;SDS011;11536;50.860;4.286;2022-07-24T14:35:26;6.93;;;2.20;;
22737;SDS011;11536;50.860;4.286;2022-07-24T14:38:01;5.75;;;2.63;;
22737;SDS011;11536;50.860;4.286;2022-07-24T14:40:27;9.27;;;3.00;;
22737;SDS011;11536;50.860;4.286;2022-07-24T14:42:53;4.70;;;2.70;;
22737;SDS011;11536;50.860;4.286;2022-07-24T14:45:20;4.70;;;2.33;;
22737;SDS011;11536;50.860;4.286;2022-07-24T14:47:49;6.25;;;2.78;;
22737;SDS011;11536;50.860;4.286;2022-07-24T14:50:15;8.57;;;2.42;;
22737;SDS011;11536;50.860;4.286;2022-07-24T14:52:40;5.50;;;2.75;;
22737;SDS011;11536;50.860;4.286;2022-07-24T14:55:07;6.72;;;2.83;;
22737;SDS011;11536;50.860;4.286;2022-07-24T14:57:33;5.45;;;3.10;;
22737;SDS011;11536;50.860;4.286;2022-07-24T14:59:59;5.38;;;2.75;;
22737;SDS011;11536;50.860;4.286;2022-07-24T15:02:25;7.22;;;3.22;;
22737;SDS011;11536;50.860;4.286;2022-07-24T15:04:51;4.63;;;3.13;;
22737;SDS011;11536;50.860;4.286;2022-07-24T15:07:17;5.45;;;2.97;;
22737;SDS011;11536;50.860;4.286;2022-07-24T15:09:43;6.18;;;3.20;;
22737;SDS011;11536;50.860;4.286;2022-07-24T15:12:08;4.35;;;2.60;;
22737;SDS011;11536;50.860;4.286;2022-07-24T15:14:34;5.00;;;3.05;;
22737;SDS011;11536;50.860;4.286;2022-07-24T15:17:00;6.78;;;2.90;;